OCN6GP LDZD-EDDF
Flight info
| Callsign | OCN6GP |
|---|---|
| Flight time | N/A |
| Altitude | 36000 |
| Route | RAVNA DCT SORDO DCT TIBRO DCT KUMOM DCT TAKEX DCT OLETU DCT ERNAS T161 DEBHI DEBHI1B |
| Aircraft | A320/M-SDE3FGHIRWY/LB1 |
Departure
| Time | N/A |
|---|---|
| Airport | Zadar Airport (LDZD) |
Arrival
| Time | 2026-05-04 17:18 |
|---|---|
| Airport | Frankfurt Main Airport (EDDF) |
| Time | Latitude | Longitude | Altitude | Speed | Heading |
|---|---|---|---|---|---|
| 2026-05-04 16:32 | 48.23401 | 11.80791 | 35936 ft | 446 kts | 327° |
| 2026-05-04 16:33 | 48.34116 | 11.71511 | 35950 ft | 446 kts | 327° |
| 2026-05-04 16:34 | 48.42153 | 11.64523 | 35948 ft | 446 kts | 326° |
| 2026-05-04 16:35 | 48.57675 | 11.49407 | 35947 ft | 444 kts | 322° |
| 2026-05-04 16:36 | 48.64978 | 11.40973 | 35948 ft | 440 kts | 316° |
| 2026-05-04 16:37 | 48.71917 | 11.31888 | 35947 ft | 440 kts | 315° |
| 2026-05-04 16:38 | 48.81149 | 11.19789 | 35572 ft | 439 kts | 315° |
| 2026-05-04 16:39 | 48.88023 | 11.10753 | 34347 ft | 433 kts | 315° |
| 2026-05-04 16:39 | 48.92520 | 11.04822 | 33112 ft | 429 kts | 315° |
| 2026-05-04 16:40 | 48.97002 | 10.98900 | 32262 ft | 423 kts | 315° |
| 2026-05-04 16:40 | 49.01391 | 10.93081 | 31376 ft | 417 kts | 314° |
| 2026-05-04 16:41 | 49.05736 | 10.87310 | 30484 ft | 410 kts | 314° |
| 2026-05-04 16:41 | 49.12084 | 10.78846 | 29133 ft | 401 kts | 315° |
| 2026-05-04 16:42 | 49.18301 | 10.70532 | 27795 ft | 392 kts | 315° |
| 2026-05-04 16:43 | 49.22345 | 10.65108 | 26920 ft | 386 kts | 315° |
| 2026-05-04 16:43 | 49.26358 | 10.59717 | 26041 ft | 380 kts | 315° |
| 2026-05-04 16:43 | 49.28328 | 10.57064 | 25612 ft | 377 kts | 315° |
| 2026-05-04 16:44 | 49.35912 | 10.46420 | 23885 ft | 364 kts | 308° |
| 2026-05-04 16:45 | 49.39020 | 10.40190 | 23807 ft | 371 kts | 302° |
| 2026-05-04 16:46 | 49.43482 | 10.30389 | 23864 ft | 381 kts | 301° |
| 2026-05-04 16:46 | 49.46563 | 10.23609 | 23165 ft | 387 kts | 302° |
| 2026-05-04 16:47 | 49.49608 | 10.16904 | 22097 ft | 380 kts | 302° |
| 2026-05-04 16:47 | 49.52604 | 10.10284 | 21036 ft | 375 kts | 302° |
| 2026-05-04 16:48 | 49.57007 | 10.00525 | 19479 ft | 367 kts | 302° |
| 2026-05-04 16:48 | 49.58474 | 9.97266 | 18980 ft | 365 kts | 302° |
| 2026-05-04 16:49 | 49.61320 | 9.90927 | 17993 ft | 360 kts | 302° |
| 2026-05-04 16:49 | 49.64144 | 9.84624 | 17028 ft | 355 kts | 302° |
| 2026-05-04 16:50 | 49.66930 | 9.78395 | 16129 ft | 350 kts | 302° |
| 2026-05-04 16:50 | 49.69673 | 9.72247 | 15383 ft | 348 kts | 302° |
| 2026-05-04 16:51 | 49.72406 | 9.66103 | 14639 ft | 344 kts | 302° |
| 2026-05-04 16:51 | 49.73761 | 9.63055 | 14266 ft | 343 kts | 302° |
| 2026-05-04 16:51 | 49.76433 | 9.57028 | 13523 ft | 340 kts | 302° |
| 2026-05-04 16:52 | 49.79080 | 9.51043 | 12787 ft | 337 kts | 302° |
| 2026-05-04 16:52 | 49.80408 | 9.48038 | 12413 ft | 335 kts | 302° |
| 2026-05-04 16:53 | 49.83006 | 9.42141 | 11670 ft | 332 kts | 302° |
| 2026-05-04 16:53 | 49.86750 | 9.33274 | 10893 ft | 312 kts | 290° |
| 2026-05-04 16:54 | 49.87404 | 9.30150 | 10705 ft | 300 kts | 282° |
| 2026-05-04 16:55 | 49.89499 | 9.18179 | 9707 ft | 287 kts | 293° |
| 2026-05-04 16:55 | 49.92516 | 9.14353 | 9006 ft | 293 kts | 346° |
| 2026-05-04 16:56 | 49.96566 | 9.14293 | 8314 ft | 290 kts | 3° |
| 2026-05-04 16:56 | 50.02537 | 9.14673 | 7276 ft | 282 kts | 345° |
| 2026-05-04 16:57 | 50.04317 | 9.13443 | 7031 ft | 279 kts | 327° |
| 2026-05-04 16:57 | 50.07507 | 9.10079 | 6555 ft | 276 kts | 323° |
| 2026-05-04 16:58 | 50.12138 | 9.04824 | 5799 ft | 272 kts | 313° |
| 2026-05-04 16:58 | 50.13121 | 9.02389 | 5547 ft | 264 kts | 290° |
| 2026-05-04 16:59 | 50.14124 | 8.97022 | 5063 ft | 254 kts | 279° |
| 2026-05-04 17:00 | 50.12740 | 8.87223 | 4916 ft | 216 kts | 250° |
| 2026-05-04 17:00 | 50.11232 | 8.80922 | 4219 ft | 198 kts | 249° |
| 2026-05-04 17:01 | 50.10295 | 8.77077 | 3635 ft | 182 kts | 249° |
| 2026-05-04 17:01 | 50.09420 | 8.73475 | 3133 ft | 173 kts | 249° |
| 2026-05-04 17:02 | 50.08584 | 8.70017 | 2685 ft | 171 kts | 249° |
| 2026-05-04 17:02 | 50.07748 | 8.66554 | 2232 ft | 168 kts | 250° |
| 2026-05-04 17:03 | 50.07344 | 8.64876 | 2020 ft | 161 kts | 249° |
| 2026-05-04 17:03 | 50.06970 | 8.63319 | 1777 ft | 149 kts | 249° |
| 2026-05-04 17:03 | 50.06259 | 8.60398 | 2938 ft | 152 kts | 250° |
| 2026-05-04 17:04 | 50.05451 | 8.57011 | 3986 ft | 183 kts | 250° |
| 2026-05-04 17:04 | 50.04500 | 8.53009 | 4822 ft | 205 kts | 252° |
| 2026-05-04 17:05 | 50.04695 | 8.48653 | 4988 ft | 208 kts | 292° |
| 2026-05-04 17:05 | 50.06253 | 8.44794 | 4982 ft | 225 kts | 322° |
| 2026-05-04 17:06 | 50.09380 | 8.44261 | 4881 ft | 243 kts | 26° |
| 2026-05-04 17:06 | 50.10661 | 8.45893 | 4644 ft | 241 kts | 55° |
| 2026-05-04 17:07 | 50.12322 | 8.50435 | 4161 ft | 240 kts | 63° |
| 2026-05-04 17:07 | 50.12825 | 8.51974 | 4032 ft | 239 kts | 64° |
| 2026-05-04 17:07 | 50.13826 | 8.55063 | 4001 ft | 245 kts | 64° |
| 2026-05-04 17:07 | 50.14632 | 8.57558 | 3999 ft | 266 kts | 64° |
| 2026-05-04 17:08 | 50.15470 | 8.60154 | 3994 ft | 270 kts | 64° |
| 2026-05-04 17:08 | 50.17162 | 8.65398 | 3988 ft | 271 kts | 64° |
| 2026-05-04 17:08 | 50.18012 | 8.68033 | 3981 ft | 271 kts | 64° |
| 2026-05-04 17:09 | 50.18858 | 8.70650 | 3978 ft | 271 kts | 64° |
| 2026-05-04 17:09 | 50.19707 | 8.73281 | 3973 ft | 271 kts | 64° |
| 2026-05-04 17:09 | 50.20546 | 8.75884 | 3966 ft | 270 kts | 64° |
| 2026-05-04 17:10 | 50.22242 | 8.81147 | 3971 ft | 271 kts | 64° |
| 2026-05-04 17:10 | 50.22271 | 8.89298 | 3957 ft | 266 kts | 133° |
| 2026-05-04 17:11 | 50.20799 | 8.90947 | 3960 ft | 263 kts | 161° |
| 2026-05-04 17:11 | 50.19013 | 8.91295 | 3951 ft | 252 kts | 190° |
| 2026-05-04 17:11 | 50.16237 | 8.88717 | 3962 ft | 229 kts | 222° |
| 2026-05-04 17:12 | 50.15086 | 8.87062 | 3955 ft | 221 kts | 223° |
| 2026-05-04 17:12 | 50.13009 | 8.84003 | 4015 ft | 186 kts | 224° |
| 2026-05-04 17:13 | 50.10828 | 8.79394 | 3937 ft | 176 kts | 245° |
| 2026-05-04 17:14 | 50.09561 | 8.74081 | 3245 ft | 174 kts | 250° |
| 2026-05-04 17:14 | 50.09145 | 8.72320 | 3008 ft | 173 kts | 249° |
| 2026-05-04 17:14 | 50.08310 | 8.68863 | 2538 ft | 171 kts | 249° |
| 2026-05-04 17:15 | 50.07892 | 8.67135 | 2304 ft | 170 kts | 249° |
| 2026-05-04 17:15 | 50.07100 | 8.63853 | 1853 ft | 149 kts | 249° |
| 2026-05-04 17:16 | 50.06429 | 8.61061 | 1459 ft | 134 kts | 249° |
| 2026-05-04 17:16 | 50.05441 | 8.56973 | 915 ft | 135 kts | 250° |
| 2026-05-04 17:17 | 50.05116 | 8.55587 | 726 ft | 137 kts | 249° |
| 2026-05-04 17:17 | 50.04193 | 8.51735 | 374 ft | 75 kts | 249° |
| 2026-05-04 17:18 | 50.04075 | 8.51241 | 374 ft | 31 kts | 249° |
| 2026-05-04 17:18 | 50.03824 | 8.50824 | 374 ft | 19 kts | 182° |
| 2026-05-04 17:19 | 50.03845 | 8.51194 | 374 ft | 21 kts | 71° |
| 2026-05-04 17:19 | 50.03957 | 8.51654 | 374 ft | 24 kts | 70° |
| 2026-05-04 17:20 | 50.04078 | 8.52169 | 374 ft | 26 kts | 70° |
| 2026-05-04 17:20 | 50.04206 | 8.52697 | 374 ft | 25 kts | 70° |
| 2026-05-04 17:20 | 50.04270 | 8.52965 | 374 ft | 26 kts | 70° |
| 2026-05-04 17:21 | 50.04390 | 8.53500 | 388 ft | 21 kts | 81° |
| 2026-05-04 17:21 | 50.04419 | 8.53904 | 394 ft | 18 kts | 85° |
| 2026-05-04 17:22 | 50.04432 | 8.54107 | 394 ft | 19 kts | 84° |
| 2026-05-04 17:22 | 50.04446 | 8.54314 | 394 ft | 18 kts | 85° |
| 2026-05-04 17:23 | 50.04210 | 8.54826 | 374 ft | 23 kts | 161° |
| 2026-05-04 17:23 | 50.04062 | 8.54910 | 374 ft | 19 kts | 159° |
| 2026-05-04 17:23 | 50.03974 | 8.55097 | 374 ft | 9 kts | 160° |
| 2026-05-04 17:24 | 50.03948 | 8.55112 | 374 ft | 0 kts | 160° |